Time;durP1;ratioP1;P1;durP2;ratioP2;P2;SDS_P1;SDS_P2;PMS_P1;PMS_P2;Temp;Humidity;BMP_temperature;BMP_pressure;BME280_temperature;BME280_humidity;BME280_pressure;Samples;Min_cycle;Max_cycle;Signal;HPM_P1;HPM_P2
2023/10/25 00:00:57;;;;;;;6.87;3.53;;;;;;;16.76;100.00;100733.03;2057682;28;20198;-69
2023/10/25 00:01:58;;;;;;;6.17;4.10;;;;;;;16.80;100.00;100721.69;2062703;28;20220;-69
2023/10/25 00:02:58;;;;;;;6.80;3.63;;;;;;;16.83;100.00;100718.72;2064433;28;20195;-69
2023/10/25 00:03:58;;;;;;;8.67;3.83;;;;;;;16.82;100.00;100713.59;2064952;28;20209;-69
2023/10/25 00:04:59;;;;;;;5.93;3.33;;;;;;;16.85;100.00;100712.66;2064886;28;20182;-69
2023/10/25 00:05:59;;;;;;;7.10;3.57;;;;;;;16.89;100.00;100714.03;2065177;28;20735;-69
2023/10/25 00:07:00;;;;;;;6.40;3.97;;;;;;;16.93;100.00;100713.84;2065130;28;20240;-69
2023/10/25 00:08:00;;;;;;;5.00;3.20;;;;;;;16.91;100.00;100710.75;2057620;28;20648;-69
2023/10/25 00:09:00;;;;;;;4.57;3.00;;;;;;;16.91;100.00;100705.16;2056584;28;20645;-69
2023/10/25 00:10:01;;;;;;;10.60;3.80;;;;;;;16.99;100.00;100711.94;2056117;28;20194;-69
2023/10/25 00:11:06;;;;;;;7.57;3.60;;;;;;;17.03;100.00;100709.75;2068741;28;20205;-69
2023/10/25 00:12:06;;;;;;;5.17;3.10;;;;;;;17.05;100.00;100707.28;2064461;28;20222;-69
2023/10/25 00:13:07;;;;;;;5.03;3.37;;;;;;;17.06;100.00;100712.38;2064973;28;20453;-69
2023/10/25 00:14:08;;;;;;;6.20;3.60;;;;;;;17.08;100.00;100697.91;2064757;28;20186;-69
2023/10/25 00:15:08;;;;;;;5.87;3.23;;;;;;;17.11;100.00;100688.56;2064734;28;20729;-69
2023/10/25 00:16:09;;;;;;;8.37;3.57;;;;;;;17.13;100.00;100688.88;2057468;28;20851;-69
2023/10/25 00:17:09;;;;;;;5.93;3.40;;;;;;;17.12;100.00;100690.13;2063717;28;20191;-69
2023/10/25 00:18:10;;;;;;;7.43;3.60;;;;;;;17.05;100.00;100691.25;2058631;28;20194;-69
2023/10/25 00:19:10;;;;;;;6.50;3.50;;;;;;;17.15;100.00;100708.75;2061515;28;20241;-69
2023/10/25 00:20:12;;;;;;;7.47;3.43;;;;;;;17.08;100.00;100697.91;2064447;28;20186;-69
2023/10/25 00:21:12;;;;;;;7.70;3.60;;;;;;;16.95;100.00;100680.59;2064318;28;20664;-69
2023/10/25 00:22:13;;;;;;;5.77;3.27;;;;;;;17.00;100.00;100686.28;2062869;28;20919;-69
2023/10/25 00:23:13;;;;;;;6.70;3.90;;;;;;;17.13;100.00;100692.44;2057572;28;20667;-68
2023/10/25 00:24:14;;;;;;;5.37;3.30;;;;;;;17.07;100.00;100694.31;2065451;28;20189;-69
2023/10/25 00:25:14;;;;;;;5.50;3.33;;;;;;;17.02;100.00;100689.41;2057470;28;20203;-68
2023/10/25 00:26:15;;;;;;;7.03;3.57;;;;;;;17.03;100.00;100688.16;2063436;28;20199;-69
2023/10/25 00:27:15;;;;;;;6.77;3.30;;;;;;;17.09;100.00;100691.06;2065117;28;20274;-69
2023/10/25 00:28:16;;;;;;;6.50;3.77;;;;;;;17.09;100.00;100691.06;2064731;28;20199;-69
2023/10/25 00:29:17;;;;;;;4.93;3.37;;;;;;;17.01;100.00;100668.25;2065020;28;20200;-69
2023/10/25 00:30:17;;;;;;;6.70;2.97;;;;;;;17.08;100.00;100693.09;2063931;28;20426;-69
2023/10/25 00:31:18;;;;;;;4.77;3.33;;;;;;;17.12;100.00;100692.94;2064170;28;20187;-69
2023/10/25 00:32:18;;;;;;;8.73;3.53;;;;;;;17.12;100.00;100690.88;2064336;28;20214;-69
2023/10/25 00:33:18;;;;;;;4.93;3.10;;;;;;;17.11;100.00;100677.38;2065112;28;20196;-69
2023/10/25 00:34:19;;;;;;;6.57;3.20;;;;;;;17.15;100.00;100694.75;2064674;28;20200;-69
2023/10/25 00:35:19;;;;;;;8.70;3.83;;;;;;;17.16;100.00;100691.47;2064963;28;20229;-69
2023/10/25 00:36:19;;;;;;;7.23;3.57;;;;;;;17.18;100.00;100705.81;2064769;28;20202;-69
2023/10/25 00:37:20;;;;;;;6.37;3.33;;;;;;;17.19;100.00;100700.97;2065134;28;20277;-69
2023/10/25 00:38:20;;;;;;;6.70;3.73;;;;;;;17.19;100.00;100704.53;2064776;28;20196;-69
2023/10/25 00:39:21;;;;;;;6.73;3.77;;;;;;;17.20;100.00;100697.69;2064816;28;20189;-69
2023/10/25 00:40:21;;;;;;;6.10;4.13;;;;;;;17.13;100.00;100694.47;2065285;28;20723;-69
2023/10/25 00:41:21;;;;;;;6.43;3.70;;;;;;;17.21;100.00;100702.03;2064539;28;20198;-69
2023/10/25 00:42:22;;;;;;;6.17;3.50;;;;;;;17.17;100.00;100695.84;2064316;28;20269;-69
2023/10/25 00:43:24;;;;;;;4.30;3.10;;;;;;;17.23;100.00;100702.34;2064927;28;20191;-69
2023/10/25 00:44:25;;;;;;;5.90;3.63;;;;;;;17.24;100.00;100691.91;2064461;28;20206;-69
2023/10/25 00:45:26;;;;;;;8.17;3.67;;;;;;;17.25;100.00;100680.25;2064679;28;20489;-69
2023/10/25 00:46:28;;;;;;;6.70;3.13;;;;;;;17.26;100.00;100689.44;2063924;28;20249;-69
2023/10/25 00:47:29;;;;;;;6.30;3.27;;;;;;;17.26;100.00;100678.97;2064378;28;20441;-69
2023/10/25 00:48:30;;;;;;;5.90;3.60;;;;;;;16.99;100.00;100633.56;2065254;28;20485;-69
2023/10/25 00:49:31;;;;;;;5.27;3.63;;;;;;;17.26;100.00;100676.19;2057322;28;20202;-69
2023/10/25 00:50:32;;;;;;;5.07;2.87;;;;;;;17.20;100.00;100680.09;2063821;28;21053;-69
2023/10/25 00:51:32;;;;;;;6.43;3.13;;;;;;;17.19;100.00;100684.16;2064190;28;20511;-69
2023/10/25 00:52:33;;;;;;;5.77;3.10;;;;;;;16.98;100.00;100648.06;2064437;28;20209;-69
2023/10/25 00:53:37;;;;;;;4.27;3.07;;;;;;;17.23;100.00;100688.34;2064438;28;20709;-69
2023/10/25 00:54:37;;;;;;;5.70;3.40;;;;;;;17.24;100.00;100691.91;2064965;28;20214;-69
2023/10/25 00:55:39;;;;;;;7.73;3.60;;;;;;;17.19;100.00;100670.94;2064899;28;20418;-69
2023/10/25 00:56:41;;;;;;;8.80;3.50;;;;;;;17.32;100.00;100693.88;2064426;28;20171;-69
2023/10/25 00:57:41;;;;;;;5.37;3.37;;;;;;;16.67;100.00;100592.41;2065256;28;20422;-69
2023/10/25 00:58:50;;;;;;;6.37;3.43;;;;;;;17.35;100.00;100697.75;2064055;28;20449;-69
2023/10/25 00:59:51;;;;;;;9.63;3.40;;;;;;;17.35;100.00;100692.16;2064933;28;20245;-69
2023/10/25 01:00:56;;;;;;;5.43;3.27;;;;;;;17.37;100.00;100712.81;2063634;28;20472;-69
2023/10/25 01:01:56;;;;;;;6.93;3.07;;;;;;;17.35;100.00;100712.53;2064490;28;20453;-69
2023/10/25 01:02:57;;;;;;;5.33;3.27;;;;;;;17.10;100.00;100687.78;2064719;28;20454;-69
2023/10/25 01:03:57;;;;;;;4.50;3.20;;;;;;;17.27;100.00;100719.72;2064635;28;20209;-68
2023/10/25 01:04:59;;;;;;;4.67;3.07;;;;;;;17.30;100.00;100712.41;2064496;28;20596;-69
2023/10/25 01:06:02;;;;;;;5.87;3.37;;;;;;;16.81;100.00;100650.47;2064648;28;20274;-69
2023/10/25 01:07:03;;;;;;;5.67;3.63;;;;;;;17.26;100.00;100700.63;2064584;28;20432;-69
2023/10/25 01:08:04;;;;;;;9.07;3.57;;;;;;;17.09;100.00;100679.84;2065040;28;20956;-69
2023/10/25 01:09:04;;;;;;;11.07;3.50;;;;;;;17.23;100.00;100693.94;2064847;28;20821;-68
2023/10/25 01:10:05;;;;;;;8.07;3.57;;;;;;;17.24;100.00;100680.72;2064509;28;20259;-69
2023/10/25 01:11:06;;;;;;;5.27;2.90;;;;;;;17.19;100.00;100670.94;2064470;28;20289;-68
2023/10/25 01:12:07;;;;;;;6.17;3.97;;;;;;;17.11;100.00;100678.13;2063682;28;21025;-69
2023/10/25 01:13:07;;;;;;;6.60;3.60;;;;;;;17.13;100.00;100666.47;2064567;28;20689;-69
2023/10/25 01:14:08;;;;;;;8.03;3.63;;;;;;;17.16;100.00;100665.53;2063827;28;20688;-69
2023/10/25 01:15:12;;;;;;;6.30;3.13;;;;;;;17.19;100.00;100661.75;2063934;28;20196;-69
2023/10/25 01:16:12;;;;;;;6.60;3.93;;;;;;;17.16;100.00;100657.88;2064393;28;20217;-69
2023/10/25 01:17:13;;;;;;;6.17;3.53;;;;;;;17.16;100.00;100666.28;2065188;28;20417;-69
2023/10/25 01:18:14;;;;;;;4.93;3.33;;;;;;;17.17;100.00;100661.47;2064561;28;20440;-69
2023/10/25 01:19:15;;;;;;;6.17;3.87;;;;;;;16.93;100.00;100629.88;2058630;28;20720;-69
2023/10/25 01:20:15;;;;;;;8.30;3.53;;;;;;;17.15;100.00;100658.34;2061479;28;20827;-69
2023/10/25 01:21:16;;;;;;;5.87;3.57;;;;;;;17.04;100.00;100655.31;2060227;28;20238;-69
2023/10/25 01:22:16;;;;;;;6.67;3.90;;;;;;;17.03;100.00;100664.97;2056052;28;20295;-69
2023/10/25 01:23:17;;;;;;;5.40;3.50;;;;;;;17.03;100.00;100665.75;2058024;28;20179;-69
2023/10/25 01:24:17;;;;;;;9.70;3.80;;;;;;;16.99;100.00;100667.94;2064392;28;20193;-69
2023/10/25 01:25:18;;;;;;;6.47;3.77;;;;;;;17.05;100.00;100677.25;2065088;28;20176;-69
2023/10/25 01:26:18;;;;;;;5.43;3.60;;;;;;;17.07;100.00;100673.97;2056377;28;20213;-69
2023/10/25 01:27:19;;;;;;;7.23;3.60;;;;;;;17.07;100.00;100671.94;2062224;28;20183;-69
2023/10/25 01:28:19;;;;;;;8.73;3.67;;;;;;;16.90;100.00;100645.59;2064181;28;20198;-69
2023/10/25 01:29:20;;;;;;;6.80;3.63;;;;;;;16.97;100.00;100647.28;2064573;28;20185;-69
2023/10/25 01:30:20;;;;;;;6.83;3.53;;;;;;;17.00;100.00;100643.53;2064365;28;20178;-69
2023/10/25 01:31:20;;;;;;;5.97;3.47;;;;;;;17.01;100.00;100636.69;2062580;28;20237;-69
2023/10/25 01:32:21;;;;;;;4.60;3.37;;;;;;;17.02;100.00;100624.22;2059942;28;20627;-69
2023/10/25 01:33:21;;;;;;;6.67;3.70;;;;;;;17.00;100.00;100624.69;2064859;28;20801;-69
2023/10/25 01:34:22;;;;;;;7.10;4.00;;;;;;;16.91;100.00;100607.19;2070837;28;20220;-69
2023/10/25 01:35:22;;;;;;;10.57;3.50;;;;;;;16.82;100.00;100621.22;2066450;28;20393;-69
2023/10/25 01:36:23;;;;;;;8.30;4.20;;;;;;;16.73;100.00;100628.91;2067931;28;20200;-69
2023/10/25 01:37:23;;;;;;;6.50;3.60;;;;;;;16.73;100.00;100634.50;2068518;28;20260;-70
2023/10/25 01:38:23;;;;;;;7.63;3.70;;;;;;;16.83;100.00;100645.97;2064604;28;20200;-69
2023/10/25 01:39:24;;;;;;;7.03;4.13;;;;;;;16.88;100.00;100646.56;2063067;28;20193;-69
2023/10/25 01:40:24;;;;;;;8.13;3.70;;;;;;;16.89;100.00;100644.06;2059952;28;20222;-69
2023/10/25 01:41:25;;;;;;;7.53;3.63;;;;;;;16.89;100.00;100644.06;2064026;28;20193;-69
2023/10/25 01:42:25;;;;;;;11.47;3.20;;;;;;;16.82;100.00;100649.22;2063786;28;20186;-69
2023/10/25 01:43:26;;;;;;;5.70;3.13;;;;;;;16.58;100.00;100615.59;2063540;28;20557;-69
2023/10/25 01:44:26;;;;;;;6.90;3.90;;;;;;;16.88;100.00;100666.16;2064191;28;20596;-69
2023/10/25 01:45:30;;;;;;;7.27;3.80;;;;;;;16.89;100.00;100660.84;2064087;28;20198;-69
2023/10/25 01:46:31;;;;;;;6.73;3.60;;;;;;;16.92;100.00;100657.09;2064483;28;21544;-69
2023/10/25 01:47:31;;;;;;;4.97;3.37;;;;;;;16.87;100.00;100648.56;2064162;28;20871;-69
2023/10/25 01:48:31;;;;;;;6.23;3.70;;;;;;;16.83;100.00;100645.97;2063532;28;20633;-69
2023/10/25 01:49:32;;;;;;;7.67;3.37;;;;;;;16.83;100.00;100637.56;2064697;28;20196;-69
2023/10/25 01:50:32;;;;;;;5.90;3.40;;;;;;;16.88;100.00;100622.13;2064149;28;20280;-70
2023/10/25 01:51:33;;;;;;;5.83;3.73;;;;;;;16.47;100.00;100549.47;2063994;28;20656;-69
2023/10/25 01:52:34;;;;;;;4.40;3.10;;;;;;;16.98;100.00;100628.47;2063875;28;20715;-69
2023/10/25 01:53:34;;;;;;;5.53;3.40;;;;;;;16.99;100.00;100627.97;2063267;28;20288;-69
2023/10/25 01:54:35;;;;;;;6.40;3.60;;;;;;;16.96;100.00;100623.34;2062957;28;20455;-69
2023/10/25 01:55:40;;;;;;;5.47;3.33;;;;;;;16.94;100.00;100623.03;2064316;28;20174;-69
2023/10/25 01:56:40;;;;;;;6.77;3.30;;;;;;;17.02;100.00;100639.00;2064208;28;20322;-69
2023/10/25 01:57:44;;;;;;;5.07;3.37;;;;;;;17.03;100.00;100631.38;2064634;28;20813;-69
2023/10/25 01:58:45;;;;;;;7.17;3.80;;;;;;;17.05;100.00;100629.66;2056802;28;20187;-69
2023/10/25 01:59:45;;;;;;;7.07;3.53;;;;;;;17.09;100.00;100624.66;2063304;28;20449;-69
2023/10/25 02:00:46;;;;;;;6.20;3.73;;;;;;;17.10;100.00;100636.59;2063997;28;20205;-69
2023/10/25 02:01:46;;;;;;;5.80;3.03;;;;;;;17.13;100.00;100641.25;2058918;28;20207;-69
2023/10/25 02:02:46;;;;;;;4.43;3.20;;;;;;;17.14;100.00;100638.00;2059865;28;20205;-69
2023/10/25 02:03:47;;;;;;;5.23;3.37;;;;;;;17.16;100.00;100643.13;2064277;28;20182;-69
2023/10/25 02:04:47;;;;;;;6.50;3.73;;;;;;;17.06;100.00;100627.63;2062797;28;20182;-69
2023/10/25 02:05:47;;;;;;;6.50;3.17;;;;;;;16.61;100.00;100546.75;2056571;28;20207;-69
2023/10/25 02:06:51;;;;;;;6.33;3.30;;;;;;;16.57;100.00;100546.13;2064510;28;20202;-69
2023/10/25 02:07:52;;;;;;;4.90;2.90;;;;;;;17.15;100.00;100647.16;2056223;28;20237;-69
2023/10/25 02:08:52;;;;;;;5.77;3.30;;;;;;;16.56;100.00;100558.56;2062292;28;20515;-69
2023/10/25 02:09:52;;;;;;;4.73;3.27;;;;;;;17.19;100.00;100636.56;2064110;28;20204;-69
2023/10/25 02:10:53;;;;;;;7.30;3.30;;;;;;;16.88;100.00;100590.59;2063396;28;20193;-69
2023/10/25 02:11:53;;;;;;;5.10;2.90;;;;;;;17.19;100.00;100640.13;2065795;28;20276;-69
2023/10/25 02:12:54;;;;;;;8.33;3.50;;;;;;;17.19;100.00;100648.53;2070893;28;20264;-69
2023/10/25 02:13:56;;;;;;;4.33;2.90;;;;;;;17.21;100.00;100639.66;2063944;28;20191;-69
2023/10/25 02:14:57;;;;;;;8.87;3.87;;;;;;;16.88;100.00;100598.97;2064641;28;20696;-69
2023/10/25 02:15:57;;;;;;;5.93;3.53;;;;;;;16.62;100.00;100547.53;2064061;28;20899;-69
2023/10/25 02:16:58;;;;;;;5.20;3.50;;;;;;;17.21;100.00;100643.22;2064021;28;20588;-69
2023/10/25 02:17:58;;;;;;;7.53;3.20;;;;;;;17.24;100.00;100647.88;2064021;28;20606;-69
2023/10/25 02:18:59;;;;;;;4.43;3.10;;;;;;;17.26;100.00;100653.78;2063851;28;20201;-69
2023/10/25 02:20:00;;;;;;;6.50;3.43;;;;;;;17.26;100.00;100653.03;2064061;28;20574;-69
2023/10/25 02:21:00;;;;;;;7.13;3.40;;;;;;;17.26;100.00;100642.56;2063846;28;20876;-69
2023/10/25 02:22:01;;;;;;;6.67;3.53;;;;;;;17.21;100.00;100626.41;2062768;28;20336;-69
2023/10/25 02:23:01;;;;;;;6.30;3.30;;;;;;;16.77;100.00;100557.53;2064711;28;20743;-69
2023/10/25 02:24:03;;;;;;;5.57;2.90;;;;;;;17.22;100.00;100630.78;2056806;28;20622;-69
2023/10/25 02:25:04;;;;;;;4.27;2.93;;;;;;;17.25;100.00;100626.25;2062533;28;20259;-69
2023/10/25 02:26:04;;;;;;;7.27;3.10;;;;;;;17.17;100.00;100625.06;2064287;28;20458;-69
2023/10/25 02:27:05;;;;;;;9.60;3.37;;;;;;;17.12;100.00;100626.47;2063932;28;20194;-69
2023/10/25 02:28:05;;;;;;;5.57;3.20;;;;;;;16.49;100.00;100528.16;2063751;28;20292;-69
2023/10/25 02:29:06;;;;;;;4.77;3.33;;;;;;;16.47;100.00;100521.50;2064200;28;20174;-69
2023/10/25 02:30:07;;;;;;;6.13;2.90;;;;;;;17.20;100.00;100630.47;2063825;28;20270;-69
2023/10/25 02:31:07;;;;;;;5.93;3.30;;;;;;;16.63;100.00;100546.28;2064157;28;20191;-69
2023/10/25 02:32:09;;;;;;;3.93;2.67;;;;;;;17.21;100.00;100625.66;2063306;28;20215;-69
2023/10/25 02:33:09;;;;;;;5.40;3.40;;;;;;;17.21;100.00;100632.03;2064229;28;20245;-69
2023/10/25 02:34:10;;;;;;;4.67;3.20;;;;;;;16.86;100.00;100571.47;2064008;28;20445;-69
2023/10/25 02:35:10;;;;;;;5.77;3.57;;;;;;;17.21;100.00;100620.81;2064198;28;20316;-69
2023/10/25 02:36:11;;;;;;;5.57;2.73;;;;;;;16.46;100.00;100503.94;2062968;28;20662;-69
2023/10/25 02:37:11;;;;;;;6.60;3.27;;;;;;;17.17;100.00;100616.66;2064140;28;20563;-69
2023/10/25 02:38:11;;;;;;;6.33;3.30;;;;;;;17.17;100.00;100613.88;2063980;28;20190;-69
2023/10/25 02:39:12;;;;;;;6.23;3.23;;;;;;;17.11;100.00;100613.72;2064538;28;20263;-69
2023/10/25 02:40:12;;;;;;;5.53;3.07;;;;;;;17.05;100.00;100624.03;2063748;28;20202;-69
2023/10/25 02:41:13;;;;;;;5.13;3.30;;;;;;;17.01;100.00;100622.69;2063480;28;20186;-69
2023/10/25 02:42:13;;;;;;;6.47;3.63;;;;;;;17.02;100.00;100624.22;2065206;28;20222;-69
2023/10/25 02:43:13;;;;;;;4.43;2.60;;;;;;;17.02;100.00;100627.81;2063674;28;20195;-69
2023/10/25 02:44:15;;;;;;;5.23;3.10;;;;;;;17.03;100.00;100625.78;2066526;28;20701;-69
2023/10/25 02:45:16;;;;;;;6.10;2.90;;;;;;;16.98;100.00;100613.22;2067797;28;20205;-69
2023/10/25 02:46:16;;;;;;;5.67;3.17;;;;;;;16.94;100.00;100603.44;2057087;28;21013;-69
2023/10/25 02:47:17;;;;;;;4.70;2.97;;;;;;;17.03;100.00;100609.75;2064379;28;20656;-69
2023/10/25 02:48:17;;;;;;;5.50;2.93;;;;;;;17.05;100.00;100610.03;2063851;28;20197;-69
2023/10/25 02:49:17;;;;;;;5.97;3.13;;;;;;;17.05;100.00;100598.84;2063897;28;20194;-69
2023/10/25 02:50:18;;;;;;;5.83;2.63;;;;;;;17.07;100.00;100606.78;2063602;28;20201;-69
2023/10/25 02:51:18;;;;;;;5.30;3.07;;;;;;;17.08;100.00;100595.09;2062815;28;20197;-69
2023/10/25 02:52:19;;;;;;;4.97;3.00;;;;;;;17.07;100.00;100587.94;2065351;28;20225;-69
2023/10/25 02:53:19;;;;;;;4.97;3.37;;;;;;;17.09;100.00;100582.66;2070200;28;20185;-69
2023/10/25 02:54:20;;;;;;;4.43;2.90;;;;;;;17.09;100.00;100579.06;2063332;28;20175;-69
2023/10/25 02:55:20;;;;;;;7.90;3.40;;;;;;;17.10;100.00;100575.00;2064247;28;20664;-69
2023/10/25 02:56:20;;;;;;;6.57;3.20;;;;;;;17.10;100.00;100581.38;2056528;28;20198;-69
2023/10/25 02:57:21;;;;;;;5.43;3.33;;;;;;;17.08;100.00;100581.09;2062389;28;20205;-69
2023/10/25 02:58:21;;;;;;;5.20;2.80;;;;;;;16.92;100.00;100556.34;2064038;28;20205;-69
2023/10/25 02:59:22;;;;;;;6.13;3.67;;;;;;;16.96;100.00;100568.09;2063998;28;20203;-69
2023/10/25 03:00:23;;;;;;;6.93;2.93;;;;;;;16.97;100.00;100557.69;2064112;28;20192;-69
2023/10/25 03:01:24;;;;;;;4.63;3.03;;;;;;;16.99;100.00;100552.38;2063219;28;20182;-69
2023/10/25 03:02:24;;;;;;;3.73;3.00;;;;;;;16.86;100.00;100544.22;2062719;28;20435;-69
2023/10/25 03:03:30;;;;;;;5.67;3.50;;;;;;;16.93;100.00;100545.91;2055594;28;20244;-69
2023/10/25 03:04:30;;;;;;;3.90;2.60;;;;;;;16.94;100.00;100553.81;2056301;28;20186;-69
2023/10/25 03:05:31;;;;;;;3.90;2.77;;;;;;;16.96;100.00;100553.34;2063193;28;20490;-69
2023/10/25 03:06:31;;;;;;;3.50;2.50;;;;;;;16.57;100.00;100497.81;2063717;28;20198;-69
2023/10/25 03:07:32;;;;;;;5.13;2.60;;;;;;;16.96;100.00;100558.97;2063875;28;20221;-69
2023/10/25 03:08:32;;;;;;;5.43;2.73;;;;;;;16.97;100.00;100563.31;2063702;28;20698;-69
2023/10/25 03:09:33;;;;;;;5.00;3.17;;;;;;;16.94;100.00;100545.44;2063821;28;20214;-69
2023/10/25 03:10:33;;;;;;;3.90;2.60;;;;;;;16.98;100.00;100546.03;2063729;28;20188;-69
2023/10/25 03:11:34;;;;;;;6.83;3.23;;;;;;;16.98;100.00;100551.63;2063169;28;20378;-69
2023/10/25 03:12:34;;;;;;;7.43;3.43;;;;;;;16.62;100.00;100500.72;2055840;28;20247;-69
2023/10/25 03:13:34;;;;;;;5.57;2.80;;;;;;;16.92;100.00;100559.13;2069654;28;20287;-69
2023/10/25 03:14:35;;;;;;;4.90;2.80;;;;;;;16.91;100.00;100560.38;2065847;28;20205;-69
2023/10/25 03:15:35;;;;;;;4.90;3.23;;;;;;;16.96;100.00;100579.31;2063960;28;20190;-69
2023/10/25 03:16:36;;;;;;;4.23;2.37;;;;;;;16.96;100.00;100572.94;2066958;28;20278;-69
2023/10/25 03:17:36;;;;;;;4.77;3.23;;;;;;;16.93;100.00;100571.88;2066289;28;20212;-69
2023/10/25 03:18:36;;;;;;;8.83;3.10;;;;;;;16.79;100.00;100574.59;2057198;28;20664;-69
2023/10/25 03:19:37;;;;;;;6.17;2.80;;;;;;;16.14;100.00;100502.66;2063848;28;20184;-69
2023/10/25 03:20:37;;;;;;;5.43;2.87;;;;;;;16.73;100.00;100585.69;2064414;28;20197;-69
2023/10/25 03:21:38;;;;;;;6.40;3.20;;;;;;;16.74;100.00;100584.44;2063264;28;20649;-69
2023/10/25 03:22:38;;;;;;;5.63;2.80;;;;;;;16.71;100.00;100581.81;2057222;28;20193;-69
2023/10/25 03:23:38;;;;;;;6.30;3.30;;;;;;;16.57;100.00;100590.13;2060380;28;20283;-69
2023/10/25 03:24:39;;;;;;;3.80;2.83;;;;;;;16.48;100.00;100590.19;2063482;28;20254;-69
2023/10/25 03:25:40;;;;;;;6.20;3.07;;;;;;;16.48;100.00;100595.78;2063807;28;20239;-69
2023/10/25 03:26:41;;;;;;;5.57;2.87;;;;;;;16.39;100.00;100585.41;2069875;28;20181;-69
2023/10/25 03:27:42;;;;;;;5.97;3.17;;;;;;;16.39;100.00;100588.19;2063491;28;20206;-68
2023/10/25 03:28:42;;;;;;;4.00;2.90;;;;;;;16.31;100.00;100593.31;2064253;28;20951;-69
2023/10/25 03:29:43;;;;;;;5.77;3.20;;;;;;;16.28;100.00;100587.88;2063775;28;20256;-69
2023/10/25 03:30:43;;;;;;;4.73;2.97;;;;;;;16.30;100.00;100594.53;2063287;28;20197;-69
2023/10/25 03:31:44;;;;;;;5.80;3.10;;;;;;;16.34;100.00;100588.81;2063173;28;20277;-69
2023/10/25 03:32:44;;;;;;;4.73;3.13;;;;;;;16.35;100.00;100584.75;2063721;28;20218;-69
2023/10/25 03:33:45;;;;;;;4.50;3.27;;;;;;;16.35;100.00;100584.75;2063720;28;20209;-69
2023/10/25 03:34:45;;;;;;;4.37;2.67;;;;;;;16.36;100.00;100587.09;2063448;28;20198;-69
2023/10/25 03:35:53;;;;;;;7.40;3.23;;;;;;;16.38;100.00;100576.19;2064049;28;20221;-69
2023/10/25 03:36:53;;;;;;;5.00;3.23;;;;;;;16.39;100.00;100571.41;2064151;28;20175;-69
2023/10/25 03:37:54;;;;;;;8.47;3.40;;;;;;;16.38;100.00;100572.63;2063719;28;20938;-69
2023/10/25 03:38:54;;;;;;;5.53;3.50;;;;;;;16.39;100.00;100574.22;2063995;28;20198;-69
2023/10/25 03:39:55;;;;;;;6.23;3.90;;;;;;;16.38;100.00;100578.19;2063592;28;20661;-69
2023/10/25 03:41:06;;;;;;;5.03;3.30;;;;;;;16.33;100.00;100582.44;2063360;28;20198;-69
2023/10/25 03:42:07;;;;;;;4.97;2.97;;;;;;;15.82;100.00;100506.22;2063145;28;20590;-69
2023/10/25 03:43:07;;;;;;;6.30;3.13;;;;;;;16.37;100.00;100597.03;2063953;28;20457;-69
2023/10/25 03:44:08;;;;;;;4.93;3.47;;;;;;;16.38;100.00;100600.56;2065634;28;20207;-69
2023/10/25 03:45:09;;;;;;;4.60;2.93;;;;;;;16.38;100.00;100612.56;2070376;28;20265;-69
2023/10/25 03:46:09;;;;;;;7.47;3.40;;;;;;;16.04;100.00;100542.31;2062854;28;20652;-69
2023/10/25 03:47:10;;;;;;;6.10;3.50;;;;;;;16.39;100.00;100597.34;2072224;28;20424;-69
2023/10/25 03:48:10;;;;;;;7.50;3.93;;;;;;;16.40;100.00;100592.53;2064795;28;20189;-69
2023/10/25 03:49:11;;;;;;;5.20;2.97;;;;;;;16.41;100.00;100591.28;2063827;28;20193;-69
2023/10/25 03:50:11;;;;;;;8.23;4.20;;;;;;;16.40;100.00;100584.91;2063768;28;20249;-69
2023/10/25 03:51:11;;;;;;;8.57;3.33;;;;;;;16.40;100.00;100590.50;2063246;28;20560;-70
2023/10/25 03:52:12;;;;;;;5.67;3.27;;;;;;;16.41;100.00;100585.69;2062947;28;20216;-70
2023/10/25 03:53:12;;;;;;;6.07;3.47;;;;;;;16.42;100.00;100589.28;2060870;28;20202;-66
2023/10/25 03:54:13;;;;;;;6.33;3.80;;;;;;;16.30;100.00;100572.19;2062294;28;20635;-66
2023/10/25 03:55:13;;;;;;;8.40;3.47;;;;;;;16.29;100.00;100565.03;2062626;28;20199;-70
2023/10/25 03:56:14;;;;;;;8.60;3.63;;;;;;;16.42;100.00;100592.81;2056288;28;20549;-67
2023/10/25 03:57:14;;;;;;;6.70;3.23;;;;;;;16.42;100.00;100585.22;2061233;28;20210;-68
2023/10/25 03:58:14;;;;;;;5.97;3.30;;;;;;;16.44;100.00;100588.31;2059184;28;20202;-68
2023/10/25 03:59:15;;;;;;;6.10;3.20;;;;;;;16.42;100.00;100596.41;2062870;28;20207;-67
2023/10/25 04:00:16;;;;;;;4.60;3.40;;;;;;;16.43;100.00;100585.97;2063413;28;20182;-67
2023/10/25 04:01:16;;;;;;;5.80;3.37;;;;;;;16.36;100.00;100577.91;2061832;28;20198;-69
2023/10/25 04:02:16;;;;;;;9.93;4.30;;;;;;;16.37;100.00;100582.25;2054973;28;20290;-69
2023/10/25 04:03:17;;;;;;;12.03;3.57;;;;;;;16.34;100.00;100578.38;2063496;28;20274;-69
2023/10/25 04:04:17;;;;;;;8.80;3.90;;;;;;;16.15;100.00;100568.53;2055844;28;20199;-69
2023/10/25 04:05:18;;;;;;;11.63;4.03;;;;;;;16.31;100.00;100592.53;2060619;28;20273;-69
2023/10/25 04:06:18;;;;;;;14.03;3.50;;;;;;;16.30;100.00;100585.41;2063316;28;20221;-68
2023/10/25 04:07:19;;;;;;;9.00;4.13;;;;;;;16.30;100.00;100586.16;2064213;28;20285;-68
2023/10/25 04:08:19;;;;;;;6.90;3.27;;;;;;;16.17;100.00;100563.22;2064311;28;20194;-70
2023/10/25 04:09:20;;;;;;;6.47;3.27;;;;;;;16.30;100.00;100565.81;2063374;28;20187;-69
2023/10/25 04:10:20;;;;;;;7.47;3.50;;;;;;;16.25;100.00;100560.88;2056914;28;20581;-71
2023/10/25 04:11:20;;;;;;;6.37;3.47;;;;;;;16.27;100.00;100564.75;2064711;28;20198;-71
2023/10/25 04:12:21;;;;;;;4.40;3.00;;;;;;;16.20;100.00;100569.91;2063821;28;20214;-70
2023/10/25 04:13:22;;;;;;;6.70;3.63;;;;;;;15.87;100.00;100521.56;2063812;28;20198;-71
2023/10/25 04:14:23;;;;;;;7.43;4.33;;;;;;;16.16;100.00;100570.06;2067121;28;20209;-71
2023/10/25 04:15:25;;;;;;;8.17;3.40;;;;;;;16.09;100.00;100581.56;2067102;28;20480;-70
2023/10/25 04:16:26;;;;;;;7.63;3.53;;;;;;;15.99;100.00;100577.25;2056868;28;20179;-71
2023/10/25 04:17:27;;;;;;;10.07;3.90;;;;;;;15.98;100.00;100574.97;2059619;28;20523;-71
2023/10/25 04:18:29;;;;;;;5.73;3.53;;;;;;;15.37;100.00;100499.97;2064378;28;20430;-71
2023/10/25 04:19:29;;;;;;;8.57;3.33;;;;;;;15.82;100.00;100564.88;2065068;28;20182;-71
2023/10/25 04:20:32;;;;;;;5.27;3.53;;;;;;;15.91;100.00;100575.25;2057399;28;20453;-71
2023/10/25 04:21:32;;;;;;;6.53;3.47;;;;;;;15.17;100.00;100458.53;2068844;28;20591;-70
2023/10/25 04:22:34;;;;;;;6.30;3.63;;;;;;;15.91;100.00;100555.69;2069408;28;20432;-70
2023/10/25 04:23:35;;;;;;;9.07;3.40;;;;;;;15.89;100.00;100550.56;2067233;28;20205;-71
2023/10/25 04:24:35;;;;;;;6.40;3.60;;;;;;;15.91;100.00;100550.13;2064223;28;20456;-70
2023/10/25 04:25:35;;;;;;;6.30;3.87;;;;;;;15.88;100.00;100539.91;2066682;28;20181;-71
2023/10/25 04:26:36;;;;;;;8.07;3.60;;;;;;;15.91;100.00;100541.72;2071077;28;20181;-71
2023/10/25 04:27:36;;;;;;;8.93;3.83;;;;;;;15.76;100.00;100516.47;2064523;28;20276;-71
2023/10/25 04:28:38;;;;;;;6.37;3.80;;;;;;;15.90;100.00;100534.59;2064354;28;20567;-71
2023/10/25 04:29:39;;;;;;;8.37;3.37;;;;;;;15.92;100.00;100541.25;2064683;28;20623;-71
2023/10/25 04:30:39;;;;;;;7.03;3.90;;;;;;;15.91;100.00;100533.34;2064402;28;20457;-71
2023/10/25 04:31:40;;;;;;;6.33;3.20;;;;;;;15.90;100.00;100526.22;2063720;28;20293;-71
2023/10/25 04:32:40;;;;;;;5.67;3.83;;;;;;;15.81;100.00;100523.44;2060528;28;20211;-70
2023/10/25 04:33:40;;;;;;;8.17;3.70;;;;;;;15.69;100.00;100508.44;2065893;28;20691;-69
2023/10/25 04:34:41;;;;;;;8.30;3.97;;;;;;;15.87;100.00;100538.31;2070262;28;20539;-69
2023/10/25 04:35:41;;;;;;;5.33;3.60;;;;;;;15.86;100.00;100539.56;2056638;28;20609;-70
2023/10/25 04:36:42;;;;;;;6.30;4.03;;;;;;;15.86;100.00;100545.16;2068898;28;20270;-72
2023/10/25 04:37:43;;;;;;;10.23;4.53;;;;;;;15.82;100.00;100544.53;2064680;28;20193;-69
2023/10/25 04:38:43;;;;;;;8.60;4.00;;;;;;;15.71;100.00;100547.06;2063956;28;20599;-69
2023/10/25 04:39:43;;;;;;;5.83;3.70;;;;;;;15.69;100.00;100549.56;2066425;28;20198;-64